sensor_id;sensor_type;location;lat;lon;timestamp;temperature;humidity
11087;DHT22;5597;47.588;9.642;2022-09-12T00:00:30;10.80;99.90
11087;DHT22;5597;47.588;9.642;2022-09-12T00:02:57;10.80;99.90
11087;DHT22;5597;47.588;9.642;2022-09-12T00:05:23;10.90;99.90
11087;DHT22;5597;47.588;9.642;2022-09-12T00:07:49;10.80;99.90
11087;DHT22;5597;47.588;9.642;2022-09-12T00:10:15;10.80;99.90
11087;DHT22;5597;47.588;9.642;2022-09-12T00:12:41;10.80;99.90
11087;DHT22;5597;47.588;9.642;2022-09-12T00:15:07;10.80;99.90
11087;DHT22;5597;47.588;9.642;2022-09-12T00:17:34;10.70;99.90
11087;DHT22;5597;47.588;9.642;2022-09-12T00:19:59;10.70;99.90
11087;DHT22;5597;47.588;9.642;2022-09-12T00:22:25;10.70;99.90
11087;DHT22;5597;47.588;9.642;2022-09-12T00:24:50;10.70;99.90
11087;DHT22;5597;47.588;9.642;2022-09-12T00:27:16;10.70;99.90
11087;DHT22;5597;47.588;9.642;2022-09-12T00:29:42;10.70;99.90
11087;DHT22;5597;47.588;9.642;2022-09-12T00:32:08;10.70;99.90
11087;DHT22;5597;47.588;9.642;2022-09-12T00:34:33;10.70;99.90
11087;DHT22;5597;47.588;9.642;2022-09-12T00:37:00;10.70;99.90
11087;DHT22;5597;47.588;9.642;2022-09-12T00:39:25;10.70;99.90
11087;DHT22;5597;47.588;9.642;2022-09-12T00:41:51;10.60;99.90
11087;DHT22;5597;47.588;9.642;2022-09-12T00:47:21;10.60;99.90
11087;DHT22;5597;47.588;9.642;2022-09-12T00:52:18;10.60;99.90
11087;DHT22;5597;47.588;9.642;2022-09-12T00:54:53;10.60;99.90
11087;DHT22;5597;47.588;9.642;2022-09-12T00:57:25;10.60;99.90
11087;DHT22;5597;47.588;9.642;2022-09-12T00:59:57;10.50;99.90
11087;DHT22;5597;47.588;9.642;2022-09-12T01:02:24;10.50;99.90
11087;DHT22;5597;47.588;9.642;2022-09-12T01:04:50;10.40;99.90
11087;DHT22;5597;47.588;9.642;2022-09-12T01:07:16;10.50;99.90
11087;DHT22;5597;47.588;9.642;2022-09-12T01:09:43;10.50;99.90
11087;DHT22;5597;47.588;9.642;2022-09-12T01:12:11;10.50;99.90
11087;DHT22;5597;47.588;9.642;2022-09-12T01:14:38;10.50;99.90
11087;DHT22;5597;47.588;9.642;2022-09-12T01:17:04;10.50;99.90
11087;DHT22;5597;47.588;9.642;2022-09-12T01:20:14;10.50;99.90
11087;DHT22;5597;47.588;9.642;2022-09-12T01:23:10;10.40;99.90
11087;DHT22;5597;47.588;9.642;2022-09-12T01:28:37;10.30;99.90
11087;DHT22;5597;47.588;9.642;2022-09-12T01:34:08;10.30;99.90
11087;DHT22;5597;47.588;9.642;2022-09-12T01:41:54;10.20;99.90
11087;DHT22;5597;47.588;9.642;2022-09-12T01:47:30;10.20;99.90
11087;DHT22;5597;47.588;9.642;2022-09-12T01:50:20;10.20;99.90
11087;DHT22;5597;47.588;9.642;2022-09-12T01:52:54;10.20;99.90
11087;DHT22;5597;47.588;9.642;2022-09-12T01:55:37;10.10;99.90
11087;DHT22;5597;47.588;9.642;2022-09-12T01:58:13;10.10;99.90
11087;DHT22;5597;47.588;9.642;2022-09-12T02:00:54;10.10;99.90
11087;DHT22;5597;47.588;9.642;2022-09-12T02:03:28;10.00;99.90
11087;DHT22;5597;47.588;9.642;2022-09-12T02:06:00;10.00;99.90
11087;DHT22;5597;47.588;9.642;2022-09-12T02:08:31;10.00;99.90
11087;DHT22;5597;47.588;9.642;2022-09-12T02:11:07;9.90;99.90
11087;DHT22;5597;47.588;9.642;2022-09-12T02:16:28;10.00;99.90
11087;DHT22;5597;47.588;9.642;2022-09-12T02:19:04;10.00;99.90
11087;DHT22;5597;47.588;9.642;2022-09-12T02:21:33;10.00;99.90
11087;DHT22;5597;47.588;9.642;2022-09-12T02:24:02;9.90;99.90
11087;DHT22;5597;47.588;9.642;2022-09-12T02:26:33;10.00;99.90
11087;DHT22;5597;47.588;9.642;2022-09-12T02:29:00;9.90;99.90
11087;DHT22;5597;47.588;9.642;2022-09-12T02:31:44;9.90;99.90
11087;DHT22;5597;47.588;9.642;2022-09-12T02:37:10;10.00;99.90
11087;DHT22;5597;47.588;9.642;2022-09-12T02:39:37;10.00;99.90
11087;DHT22;5597;47.588;9.642;2022-09-12T02:42:03;10.00;99.90
11087;DHT22;5597;47.588;9.642;2022-09-12T02:44:31;10.00;99.90
11087;DHT22;5597;47.588;9.642;2022-09-12T02:47:08;10.00;99.90
11087;DHT22;5597;47.588;9.642;2022-09-12T02:49:35;10.00;99.90
11087;DHT22;5597;47.588;9.642;2022-09-12T02:52:01;10.00;99.90
11087;DHT22;5597;47.588;9.642;2022-09-12T02:54:27;10.00;99.90
11087;DHT22;5597;47.588;9.642;2022-09-12T02:56:53;10.00;99.90
11087;DHT22;5597;47.588;9.642;2022-09-12T02:59:21;10.00;99.90
11087;DHT22;5597;47.588;9.642;2022-09-12T03:05:07;10.00;99.90
11087;DHT22;5597;47.588;9.642;2022-09-12T03:10:42;10.00;99.90
11087;DHT22;5597;47.588;9.642;2022-09-12T03:18:51;9.80;99.90
11087;DHT22;5597;47.588;9.642;2022-09-12T03:21:25;9.80;99.90
11087;DHT22;5597;47.588;9.642;2022-09-12T03:24:19;9.80;99.90
11087;DHT22;5597;47.588;9.642;2022-09-12T03:26:49;9.80;99.90
11087;DHT22;5597;47.588;9.642;2022-09-12T03:29:19;9.80;99.90
11087;DHT22;5597;47.588;9.642;2022-09-12T03:31:57;9.70;99.90
11087;DHT22;5597;47.588;9.642;2022-09-12T03:34:24;9.70;99.90
11087;DHT22;5597;47.588;9.642;2022-09-12T03:36:50;9.70;99.90
11087;DHT22;5597;47.588;9.642;2022-09-12T03:39:17;9.70;99.90
11087;DHT22;5597;47.588;9.642;2022-09-12T03:41:43;9.70;99.90
11087;DHT22;5597;47.588;9.642;2022-09-12T03:44:08;9.70;99.90
11087;DHT22;5597;47.588;9.642;2022-09-12T03:46:34;9.60;99.90
11087;DHT22;5597;47.588;9.642;2022-09-12T03:49:00;9.60;99.90
11087;DHT22;5597;47.588;9.642;2022-09-12T03:51:25;9.60;99.90
11087;DHT22;5597;47.588;9.642;2022-09-12T03:53:51;9.60;99.90
11087;DHT22;5597;47.588;9.642;2022-09-12T03:56:16;9.50;99.90
11087;DHT22;5597;47.588;9.642;2022-09-12T03:58:44;9.50;99.90
11087;DHT22;5597;47.588;9.642;2022-09-12T04:01:15;9.50;99.90
11087;DHT22;5597;47.588;9.642;2022-09-12T04:03:48;9.50;99.90
11087;DHT22;5597;47.588;9.642;2022-09-12T04:06:17;9.50;99.90
11087;DHT22;5597;47.588;9.642;2022-09-12T04:08:45;9.50;99.90
11087;DHT22;5597;47.588;9.642;2022-09-12T04:11:13;9.40;99.90
11087;DHT22;5597;47.588;9.642;2022-09-12T04:13:41;9.40;99.90
11087;DHT22;5597;47.588;9.642;2022-09-12T04:16:07;9.40;99.90
11087;DHT22;5597;47.588;9.642;2022-09-12T04:18:33;9.40;99.90
11087;DHT22;5597;47.588;9.642;2022-09-12T04:21:10;9.30;99.90
11087;DHT22;5597;47.588;9.642;2022-09-12T04:23:36;9.40;99.90
11087;DHT22;5597;47.588;9.642;2022-09-12T04:26:03;9.40;99.90
11087;DHT22;5597;47.588;9.642;2022-09-12T04:28:31;9.50;99.90
11087;DHT22;5597;47.588;9.642;2022-09-12T04:31:04;9.50;99.90
11087;DHT22;5597;47.588;9.642;2022-09-12T04:33:32;9.60;99.90
11087;DHT22;5597;47.588;9.642;2022-09-12T04:36:10;9.70;99.90
11087;DHT22;5597;47.588;9.642;2022-09-12T04:38:36;9.70;99.90
11087;DHT22;5597;47.588;9.642;2022-09-12T04:41:13;9.70;99.90
11087;DHT22;5597;47.588;9.642;2022-09-12T04:43:39;9.70;99.90
11087;DHT22;5597;47.588;9.642;2022-09-12T04:46:07;9.70;99.90
11087;DHT22;5597;47.588;9.642;2022-09-12T04:48:33;9.70;99.90
11087;DHT22;5597;47.588;9.642;2022-09-12T04:51:09;9.70;99.90
11087;DHT22;5597;47.588;9.642;2022-09-12T04:53:36;9.70;99.90
11087;DHT22;5597;47.588;9.642;2022-09-12T04:56:03;9.60;99.90
11087;DHT22;5597;47.588;9.642;2022-09-12T04:58:30;9.60;99.90
11087;DHT22;5597;47.588;9.642;2022-09-12T05:01:06;9.60;99.90
11087;DHT22;5597;47.588;9.642;2022-09-12T05:03:32;9.60;99.90
11087;DHT22;5597;47.588;9.642;2022-09-12T05:05:58;9.60;99.90
11087;DHT22;5597;47.588;9.642;2022-09-12T05:08:24;9.60;99.90
11087;DHT22;5597;47.588;9.642;2022-09-12T05:10:50;9.70;99.90
11087;DHT22;5597;47.588;9.642;2022-09-12T05:13:15;9.70;99.90
11087;DHT22;5597;47.588;9.642;2022-09-12T05:15:41;9.70;99.90
11087;DHT22;5597;47.588;9.642;2022-09-12T05:18:06;9.70;99.90
11087;DHT22;5597;47.588;9.642;2022-09-12T05:20:32;9.70;99.90
11087;DHT22;5597;47.588;9.642;2022-09-12T05:22:58;9.70;99.90
11087;DHT22;5597;47.588;9.642;2022-09-12T05:25:24;9.70;99.90
11087;DHT22;5597;47.588;9.642;2022-09-12T05:27:52;9.70;99.90
11087;DHT22;5597;47.588;9.642;2022-09-12T05:30:17;9.70;99.90
11087;DHT22;5597;47.588;9.642;2022-09-12T05:32:43;9.80;99.90
11087;DHT22;5597;47.588;9.642;2022-09-12T05:35:09;9.80;99.90
11087;DHT22;5597;47.588;9.642;2022-09-12T05:37:36;9.90;99.90
11087;DHT22;5597;47.588;9.642;2022-09-12T05:40:02;10.00;99.90
11087;DHT22;5597;47.588;9.642;2022-09-12T05:42:31;10.10;99.90
11087;DHT22;5597;47.588;9.642;2022-09-12T05:44:57;10.20;99.90
11087;DHT22;5597;47.588;9.642;2022-09-12T05:47:23;10.20;99.90
11087;DHT22;5597;47.588;9.642;2022-09-12T05:49:49;10.30;99.90
11087;DHT22;5597;47.588;9.642;2022-09-12T05:52:15;10.30;99.90
11087;DHT22;5597;47.588;9.642;2022-09-12T05:54:41;10.40;99.90
11087;DHT22;5597;47.588;9.642;2022-09-12T05:57:07;10.50;99.90
11087;DHT22;5597;47.588;9.642;2022-09-12T05:59:32;10.60;99.90
11087;DHT22;5597;47.588;9.642;2022-09-12T06:01:58;10.70;99.90
11087;DHT22;5597;47.588;9.642;2022-09-12T06:04:24;10.90;99.90
11087;DHT22;5597;47.588;9.642;2022-09-12T06:06:50;11.00;99.90
11087;DHT22;5597;47.588;9.642;2022-09-12T06:09:16;11.20;99.90
11087;DHT22;5597;47.588;9.642;2022-09-12T06:11:43;11.30;99.90
11087;DHT22;5597;47.588;9.642;2022-09-12T06:14:13;11.50;99.90
11087;DHT22;5597;47.588;9.642;2022-09-12T06:16:39;11.60;99.90
11087;DHT22;5597;47.588;9.642;2022-09-12T06:19:10;11.70;99.90
11087;DHT22;5597;47.588;9.642;2022-09-12T06:21:36;11.90;99.90
11087;DHT22;5597;47.588;9.642;2022-09-12T06:24:04;12.00;99.90
11087;DHT22;5597;47.588;9.642;2022-09-12T06:26:29;12.10;99.90
11087;DHT22;5597;47.588;9.642;2022-09-12T06:28:57;12.30;99.90
11087;DHT22;5597;47.588;9.642;2022-09-12T06:31:34;12.40;99.90
11087;DHT22;5597;47.588;9.642;2022-09-12T06:34:03;12.60;99.90
11087;DHT22;5597;47.588;9.642;2022-09-12T06:36:31;12.70;99.90
11087;DHT22;5597;47.588;9.642;2022-09-12T06:39:00;12.90;99.90
11087;DHT22;5597;47.588;9.642;2022-09-12T06:41:27;13.10;99.90
11087;DHT22;5597;47.588;9.642;2022-09-12T06:43:53;13.30;99.90
11087;DHT22;5597;47.588;9.642;2022-09-12T06:46:19;13.40;99.90
11087;DHT22;5597;47.588;9.642;2022-09-12T06:48:45;13.60;99.90
11087;DHT22;5597;47.588;9.642;2022-09-12T06:51:15;13.80;99.90
11087;DHT22;5597;47.588;9.642;2022-09-12T06:53:42;14.00;99.90
11087;DHT22;5597;47.588;9.642;2022-09-12T06:56:13;14.10;99.90
11087;DHT22;5597;47.588;9.642;2022-09-12T06:58:40;14.20;99.90
11087;DHT22;5597;47.588;9.642;2022-09-12T07:01:07;14.40;99.90
11087;DHT22;5597;47.588;9.642;2022-09-12T07:03:34;14.50;99.90
11087;DHT22;5597;47.588;9.642;2022-09-12T07:06:08;14.60;99.90
11087;DHT22;5597;47.588;9.642;2022-09-12T07:08:35;14.70;99.90
11087;DHT22;5597;47.588;9.642;2022-09-12T07:11:29;14.90;99.90
11087;DHT22;5597;47.588;9.642;2022-09-12T07:13:58;15.00;99.90
11087;DHT22;5597;47.588;9.642;2022-09-12T07:16:24;15.10;99.90
11087;DHT22;5597;47.588;9.642;2022-09-12T07:18:59;15.20;99.90
11087;DHT22;5597;47.588;9.642;2022-09-12T07:21:25;15.30;99.90
11087;DHT22;5597;47.588;9.642;2022-09-12T07:23:51;15.40;99.90
11087;DHT22;5597;47.588;9.642;2022-09-12T07:26:19;15.50;99.90
11087;DHT22;5597;47.588;9.642;2022-09-12T07:28:50;15.50;99.90
11087;DHT22;5597;47.588;9.642;2022-09-12T07:31:17;15.70;99.90
11087;DHT22;5597;47.588;9.642;2022-09-12T07:33:43;15.80;99.90
11087;DHT22;5597;47.588;9.642;2022-09-12T07:36:14;15.90;99.90
11087;DHT22;5597;47.588;9.642;2022-09-12T07:38:41;16.00;99.90
11087;DHT22;5597;47.588;9.642;2022-09-12T07:41:24;16.10;99.90
11087;DHT22;5597;47.588;9.642;2022-09-12T07:43:54;16.30;99.90
11087;DHT22;5597;47.588;9.642;2022-09-12T07:46:22;16.30;99.90
11087;DHT22;5597;47.588;9.642;2022-09-12T07:48:51;16.40;99.90
11087;DHT22;5597;47.588;9.642;2022-09-12T07:51:17;16.60;99.90
11087;DHT22;5597;47.588;9.642;2022-09-12T07:53:44;16.70;99.90
11087;DHT22;5597;47.588;9.642;2022-09-12T07:56:10;16.80;99.90
11087;DHT22;5597;47.588;9.642;2022-09-12T07:58:38;16.90;99.90
11087;DHT22;5597;47.588;9.642;2022-09-12T08:01:08;17.10;99.90
11087;DHT22;5597;47.588;9.642;2022-09-12T08:03:35;17.20;99.90
11087;DHT22;5597;47.588;9.642;2022-09-12T08:06:07;17.30;99.90
11087;DHT22;5597;47.588;9.642;2022-09-12T08:08:34;17.50;99.90
11087;DHT22;5597;47.588;9.642;2022-09-12T08:11:02;17.60;99.90
11087;DHT22;5597;47.588;9.642;2022-09-12T08:13:28;17.70;99.90
11087;DHT22;5597;47.588;9.642;2022-09-12T08:15:58;17.90;99.90
11087;DHT22;5597;47.588;9.642;2022-09-12T08:18:25;18.00;99.90
11087;DHT22;5597;47.588;9.642;2022-09-12T08:20:58;18.10;99.90
11087;DHT22;5597;47.588;9.642;2022-09-12T08:23:25;18.30;99.90
11087;DHT22;5597;47.588;9.642;2022-09-12T08:25:58;18.40;99.90
11087;DHT22;5597;47.588;9.642;2022-09-12T08:28:24;18.40;99.90
11087;DHT22;5597;47.588;9.642;2022-09-12T08:30:51;18.60;99.90
11087;DHT22;5597;47.588;9.642;2022-09-12T08:33:17;18.70;99.90
11087;DHT22;5597;47.588;9.642;2022-09-12T08:35:42;18.80;99.90
11087;DHT22;5597;47.588;9.642;2022-09-12T08:38:08;18.90;99.90
11087;DHT22;5597;47.588;9.642;2022-09-12T08:40:52;19.00;99.90
11087;DHT22;5597;47.588;9.642;2022-09-12T08:46:21;19.30;99.90
11087;DHT22;5597;47.588;9.642;2022-09-12T08:48:49;19.30;99.90
11087;DHT22;5597;47.588;9.642;2022-09-12T08:51:17;19.40;99.90
11087;DHT22;5597;47.588;9.642;2022-09-12T08:53:46;19.50;99.90
11087;DHT22;5597;47.588;9.642;2022-09-12T08:56:13;19.60;99.90
11087;DHT22;5597;47.588;9.642;2022-09-12T08:58:42;19.70;99.90
11087;DHT22;5597;47.588;9.642;2022-09-12T09:01:34;19.80;99.90
11087;DHT22;5597;47.588;9.642;2022-09-12T09:04:26;19.80;99.90
11087;DHT22;5597;47.588;9.642;2022-09-12T09:17:47;20.60;99.90
11087;DHT22;5597;47.588;9.642;2022-09-12T09:20:27;20.80;99.90
11087;DHT22;5597;47.588;9.642;2022-09-12T09:23:07;20.90;99.90
11087;DHT22;5597;47.588;9.642;2022-09-12T09:25:57;21.10;99.90
11087;DHT22;5597;47.588;9.642;2022-09-12T09:28:44;21.00;99.90
11087;DHT22;5597;47.588;9.642;2022-09-12T09:31:15;21.00;99.90
11087;DHT22;5597;47.588;9.642;2022-09-12T09:33:41;21.10;99.90
11087;DHT22;5597;47.588;9.642;2022-09-12T09:39:05;21.20;99.90
11087;DHT22;5597;47.588;9.642;2022-09-12T09:44:02;21.30;99.90
11087;DHT22;5597;47.588;9.642;2022-09-12T09:46:28;21.50;99.90
11087;DHT22;5597;47.588;9.642;2022-09-12T09:48:54;21.60;99.90
11087;DHT22;5597;47.588;9.642;2022-09-12T09:51:35;21.90;99.90
11087;DHT22;5597;47.588;9.642;2022-09-12T09:56:38;22.30;99.90
11087;DHT22;5597;47.588;9.642;2022-09-12T09:59:19;22.50;99.90
11087;DHT22;5597;47.588;9.642;2022-09-12T10:01:58;22.60;99.90
11087;DHT22;5597;47.588;9.642;2022-09-12T10:04:33;22.70;99.90
11087;DHT22;5597;47.588;9.642;2022-09-12T10:07:01;22.90;99.90
11087;DHT22;5597;47.588;9.642;2022-09-12T10:09:32;23.10;99.90
11087;DHT22;5597;47.588;9.642;2022-09-12T10:12:45;23.20;99.90
11087;DHT22;5597;47.588;9.642;2022-09-12T10:14:57;23.20;99.90
11087;DHT22;5597;47.588;9.642;2022-09-12T10:17:31;23.30;99.90
11087;DHT22;5597;47.588;9.642;2022-09-12T10:20:04;23.50;99.90
11087;DHT22;5597;47.588;9.642;2022-09-12T10:22:29;23.40;99.90
11087;DHT22;5597;47.588;9.642;2022-09-12T10:24:59;23.40;99.90
11087;DHT22;5597;47.588;9.642;2022-09-12T10:27:29;23.20;99.90
11087;DHT22;5597;47.588;9.642;2022-09-12T10:30:34;23.30;99.90
11087;DHT22;5597;47.588;9.642;2022-09-12T10:32:57;23.30;99.90
11087;DHT22;5597;47.588;9.642;2022-09-12T10:35:28;23.50;99.90
11087;DHT22;5597;47.588;9.642;2022-09-12T10:38:01;23.60;99.90
11087;DHT22;5597;47.588;9.642;2022-09-12T10:40:34;23.80;99.90
11087;DHT22;5597;47.588;9.642;2022-09-12T10:43:02;23.90;99.90
11087;DHT22;5597;47.588;9.642;2022-09-12T10:45:40;23.90;99.90
11087;DHT22;5597;47.588;9.642;2022-09-12T10:48:26;24.00;99.90
11087;DHT22;5597;47.588;9.642;2022-09-12T10:50:52;24.00;99.90
11087;DHT22;5597;47.588;9.642;2022-09-12T10:53:21;24.10;99.90
11087;DHT22;5597;47.588;9.642;2022-09-12T11:01:33;24.30;99.90
11087;DHT22;5597;47.588;9.642;2022-09-12T11:10:22;24.70;99.90
11087;DHT22;5597;47.588;9.642;2022-09-12T11:13:10;24.90;99.90
11087;DHT22;5597;47.588;9.642;2022-09-12T11:16:03;25.00;99.90
11087;DHT22;5597;47.588;9.642;2022-09-12T11:21:18;25.50;99.90
11087;DHT22;5597;47.588;9.642;2022-09-12T11:27:04;25.90;99.90
11087;DHT22;5597;47.588;9.642;2022-09-12T11:29:53;26.10;99.90
11087;DHT22;5597;47.588;9.642;2022-09-12T11:38:05;26.40;99.90
11087;DHT22;5597;47.588;9.642;2022-09-12T11:40:39;26.60;99.90
11087;DHT22;5597;47.588;9.642;2022-09-12T11:46:00;26.80;99.90
11087;DHT22;5597;47.588;9.642;2022-09-12T11:51:04;26.90;99.90
11087;DHT22;5597;47.588;9.642;2022-09-12T11:53:36;26.90;99.90
11087;DHT22;5597;47.588;9.642;2022-09-12T11:56:14;27.10;99.90
11087;DHT22;5597;47.588;9.642;2022-09-12T11:58:45;27.20;99.90
11087;DHT22;5597;47.588;9.642;2022-09-12T12:01:16;27.30;99.90
11087;DHT22;5597;47.588;9.642;2022-09-12T12:03:46;27.30;99.90
11087;DHT22;5597;47.588;9.642;2022-09-12T12:06:21;27.40;99.90
11087;DHT22;5597;47.588;9.642;2022-09-12T12:08:50;27.30;99.90
11087;DHT22;5597;47.588;9.642;2022-09-12T12:11:28;27.30;99.90
11087;DHT22;5597;47.588;9.642;2022-09-12T12:14:17;27.40;99.90
11087;DHT22;5597;47.588;9.642;2022-09-12T12:16:44;27.50;99.90
11087;DHT22;5597;47.588;9.642;2022-09-12T12:26:44;27.70;99.90
11087;DHT22;5597;47.588;9.642;2022-09-12T12:34:37;27.80;99.90
11087;DHT22;5597;47.588;9.642;2022-09-12T12:44:57;27.50;99.90
11087;DHT22;5597;47.588;9.642;2022-09-12T12:49:55;27.60;99.70
11087;DHT22;5597;47.588;9.642;2022-09-12T12:52:23;27.80;99.90
11087;DHT22;5597;47.588;9.642;2022-09-12T12:54:54;27.90;99.90
11087;DHT22;5597;47.588;9.642;2022-09-12T12:57:22;28.20;99.90
11087;DHT22;5597;47.588;9.642;2022-09-12T13:00:05;28.30;99.90
11087;DHT22;5597;47.588;9.642;2022-09-12T13:02:38;28.40;98.90
11087;DHT22;5597;47.588;9.642;2022-09-12T13:05:16;28.50;98.10
11087;DHT22;5597;47.588;9.642;2022-09-12T13:07:43;28.50;97.70
11087;DHT22;5597;47.588;9.642;2022-09-12T13:10:24;28.40;98.10
11087;DHT22;5597;47.588;9.642;2022-09-12T13:12:53;28.30;98.70
11087;DHT22;5597;47.588;9.642;2022-09-12T13:15:48;28.40;98.40
11087;DHT22;5597;47.588;9.642;2022-09-12T13:18:24;28.40;98.70
11087;DHT22;5597;47.588;9.642;2022-09-12T13:21:06;28.40;97.60
11087;DHT22;5597;47.588;9.642;2022-09-12T13:23:33;28.40;97.50
11087;DHT22;5597;47.588;9.642;2022-09-12T13:26:01;28.50;98.00
11087;DHT22;5597;47.588;9.642;2022-09-12T13:28:28;28.60;98.50
11087;DHT22;5597;47.588;9.642;2022-09-12T13:31:25;28.60;97.40
11087;DHT22;5597;47.588;9.642;2022-09-12T13:34:00;28.50;97.20
11087;DHT22;5597;47.588;9.642;2022-09-12T13:41:47;28.90;97.00
11087;DHT22;5597;47.588;9.642;2022-09-12T13:44:18;29.00;96.30
11087;DHT22;5597;47.588;9.642;2022-09-12T13:46:45;29.20;96.40
11087;DHT22;5597;47.588;9.642;2022-09-12T13:49:33;29.50;95.90
11087;DHT22;5597;47.588;9.642;2022-09-12T13:52:29;29.50;93.80
11087;DHT22;5597;47.588;9.642;2022-09-12T13:54:57;29.40;94.50
11087;DHT22;5597;47.588;9.642;2022-09-12T13:57:35;29.40;94.20
11087;DHT22;5597;47.588;9.642;2022-09-12T14:00:14;29.40;93.30
11087;DHT22;5597;47.588;9.642;2022-09-12T14:02:44;29.50;94.50
11087;DHT22;5597;47.588;9.642;2022-09-12T14:05:13;29.50;92.70
11087;DHT22;5597;47.588;9.642;2022-09-12T14:10:37;29.60;93.10
11087;DHT22;5597;47.588;9.642;2022-09-12T14:13:14;29.60;93.30
11087;DHT22;5597;47.588;9.642;2022-09-12T14:15:47;29.70;92.80
11087;DHT22;5597;47.588;9.642;2022-09-12T14:18:26;29.70;92.20
11087;DHT22;5597;47.588;9.642;2022-09-12T14:20:54;29.60;92.50
11087;DHT22;5597;47.588;9.642;2022-09-12T14:23:31;29.60;92.10
11087;DHT22;5597;47.588;9.642;2022-09-12T14:26:02;29.50;92.50
11087;DHT22;5597;47.588;9.642;2022-09-12T14:28:31;29.60;92.80
11087;DHT22;5597;47.588;9.642;2022-09-12T14:30:58;29.60;92.80
11087;DHT22;5597;47.588;9.642;2022-09-12T14:33:24;29.70;92.70
11087;DHT22;5597;47.588;9.642;2022-09-12T14:36:09;29.70;91.40
11087;DHT22;5597;47.588;9.642;2022-09-12T14:38:44;29.60;91.60
11087;DHT22;5597;47.588;9.642;2022-09-12T14:41:12;29.50;90.90
11087;DHT22;5597;47.588;9.642;2022-09-12T14:43:43;29.30;91.10
11087;DHT22;5597;47.588;9.642;2022-09-12T14:49:00;29.00;91.20
11087;DHT22;5597;47.588;9.642;2022-09-12T14:51:34;28.90;91.50
11087;DHT22;5597;47.588;9.642;2022-09-12T14:54:01;28.90;92.30
11087;DHT22;5597;47.588;9.642;2022-09-12T14:56:44;28.80;91.60
11087;DHT22;5597;47.588;9.642;2022-09-12T14:59:27;28.80;91.70
11087;DHT22;5597;47.588;9.642;2022-09-12T15:04:43;29.00;90.50
11087;DHT22;5597;47.588;9.642;2022-09-12T15:10:02;29.10;90.00
11087;DHT22;5597;47.588;9.642;2022-09-12T15:12:28;29.00;88.40
11087;DHT22;5597;47.588;9.642;2022-09-12T15:15:05;28.80;89.50
11087;DHT22;5597;47.588;9.642;2022-09-12T15:17:31;28.70;90.10
11087;DHT22;5597;47.588;9.642;2022-09-12T15:19:57;28.60;90.40
11087;DHT22;5597;47.588;9.642;2022-09-12T15:22:23;28.40;90.30
11087;DHT22;5597;47.588;9.642;2022-09-12T15:24:50;28.10;90.70
11087;DHT22;5597;47.588;9.642;2022-09-12T15:27:15;28.00;91.20
11087;DHT22;5597;47.588;9.642;2022-09-12T15:29:41;27.80;91.50
11087;DHT22;5597;47.588;9.642;2022-09-12T15:32:12;27.70;91.80
11087;DHT22;5597;47.588;9.642;2022-09-12T15:34:39;27.50;91.60
11087;DHT22;5597;47.588;9.642;2022-09-12T15:37:19;27.30;91.80
11087;DHT22;5597;47.588;9.642;2022-09-12T15:39:46;27.20;92.10
11087;DHT22;5597;47.588;9.642;2022-09-12T15:42:13;27.00;91.80
11087;DHT22;5597;47.588;9.642;2022-09-12T15:44:39;26.80;91.80
11087;DHT22;5597;47.588;9.642;2022-09-12T15:47:05;26.60;92.40
11087;DHT22;5597;47.588;9.642;2022-09-12T15:49:32;26.50;92.80
11087;DHT22;5597;47.588;9.642;2022-09-12T15:51:58;26.40;92.80
11087;DHT22;5597;47.588;9.642;2022-09-12T15:54:24;26.50;91.80
11087;DHT22;5597;47.588;9.642;2022-09-12T15:56:49;26.40;91.40
11087;DHT22;5597;47.588;9.642;2022-09-12T15:59:15;26.30;91.70
11087;DHT22;5597;47.588;9.642;2022-09-12T16:01:40;26.20;92.10
11087;DHT22;5597;47.588;9.642;2022-09-12T16:04:25;26.00;91.80
11087;DHT22;5597;47.588;9.642;2022-09-12T16:06:52;25.90;92.00
11087;DHT22;5597;47.588;9.642;2022-09-12T16:09:18;25.80;92.50
11087;DHT22;5597;47.588;9.642;2022-09-12T16:11:44;25.80;93.20
11087;DHT22;5597;47.588;9.642;2022-09-12T16:14:13;25.70;93.00
11087;DHT22;5597;47.588;9.642;2022-09-12T16:16:39;25.60;93.00
11087;DHT22;5597;47.588;9.642;2022-09-12T16:19:04;25.60;92.70
11087;DHT22;5597;47.588;9.642;2022-09-12T16:21:30;25.60;92.70
11087;DHT22;5597;47.588;9.642;2022-09-12T16:23:56;25.50;93.00
11087;DHT22;5597;47.588;9.642;2022-09-12T16:26:22;25.50;93.00
11087;DHT22;5597;47.588;9.642;2022-09-12T16:28:54;25.50;93.00
11087;DHT22;5597;47.588;9.642;2022-09-12T16:31:20;25.50;93.20
11087;DHT22;5597;47.588;9.642;2022-09-12T16:33:45;25.50;93.50
11087;DHT22;5597;47.588;9.642;2022-09-12T16:36:13;25.50;93.50
11087;DHT22;5597;47.588;9.642;2022-09-12T16:38:44;25.60;92.90
11087;DHT22;5597;47.588;9.642;2022-09-12T16:41:10;25.60;92.80
11087;DHT22;5597;47.588;9.642;2022-09-12T16:43:36;25.60;93.30
11087;DHT22;5597;47.588;9.642;2022-09-12T16:46:23;25.60;94.00
11087;DHT22;5597;47.588;9.642;2022-09-12T16:48:51;25.70;94.00
11087;DHT22;5597;47.588;9.642;2022-09-12T16:51:19;25.70;93.60
11087;DHT22;5597;47.588;9.642;2022-09-12T16:53:45;25.70;93.50
11087;DHT22;5597;47.588;9.642;2022-09-12T16:56:11;25.60;93.90
11087;DHT22;5597;47.588;9.642;2022-09-12T16:58:38;25.40;93.80
11087;DHT22;5597;47.588;9.642;2022-09-12T17:01:06;25.20;94.10
11087;DHT22;5597;47.588;9.642;2022-09-12T17:03:32;25.00;94.30
11087;DHT22;5597;47.588;9.642;2022-09-12T17:06:04;24.80;95.10
11087;DHT22;5597;47.588;9.642;2022-09-12T17:08:32;24.60;95.50
11087;DHT22;5597;47.588;9.642;2022-09-12T17:10:59;24.40;96.00
11087;DHT22;5597;47.588;9.642;2022-09-12T17:13:25;24.20;96.30
11087;DHT22;5597;47.588;9.642;2022-09-12T17:15:51;24.00;96.60
11087;DHT22;5597;47.588;9.642;2022-09-12T17:18:16;23.80;97.10
11087;DHT22;5597;47.588;9.642;2022-09-12T17:20:42;23.50;97.90
11087;DHT22;5597;47.588;9.642;2022-09-12T17:23:07;23.30;98.90
11087;DHT22;5597;47.588;9.642;2022-09-12T17:25:33;23.00;99.40
11087;DHT22;5597;47.588;9.642;2022-09-12T17:27:58;22.80;99.90
11087;DHT22;5597;47.588;9.642;2022-09-12T17:30:24;22.60;99.90
11087;DHT22;5597;47.588;9.642;2022-09-12T17:32:50;22.40;99.90
11087;DHT22;5597;47.588;9.642;2022-09-12T17:35:16;22.20;99.90
11087;DHT22;5597;47.588;9.642;2022-09-12T17:37:42;21.90;99.90
11087;DHT22;5597;47.588;9.642;2022-09-12T17:40:08;21.60;99.90
11087;DHT22;5597;47.588;9.642;2022-09-12T17:42:34;21.30;99.90
11087;DHT22;5597;47.588;9.642;2022-09-12T17:45:00;21.00;99.90
11087;DHT22;5597;47.588;9.642;2022-09-12T17:47:26;20.70;99.90
11087;DHT22;5597;47.588;9.642;2022-09-12T17:49:52;20.50;99.90
11087;DHT22;5597;47.588;9.642;2022-09-12T17:52:18;20.30;99.90
11087;DHT22;5597;47.588;9.642;2022-09-12T17:54:43;20.10;99.90
11087;DHT22;5597;47.588;9.642;2022-09-12T17:57:09;19.90;99.90
11087;DHT22;5597;47.588;9.642;2022-09-12T17:59:35;19.60;99.90
11087;DHT22;5597;47.588;9.642;2022-09-12T18:02:01;19.40;99.90
11087;DHT22;5597;47.588;9.642;2022-09-12T18:04:39;19.20;99.90
11087;DHT22;5597;47.588;9.642;2022-09-12T18:07:06;19.00;99.90
11087;DHT22;5597;47.588;9.642;2022-09-12T18:09:31;18.90;99.90
11087;DHT22;5597;47.588;9.642;2022-09-12T18:11:57;18.80;99.90
11087;DHT22;5597;47.588;9.642;2022-09-12T18:14:23;18.70;99.90